sensor_id;sensor_type;location;lat;lon;timestamp;P1;durP1;ratioP1;P2;durP2;ratioP2
39948;SDS011;29070;48.102;-1.652;2023-03-23T00:02:13;13.73;;;2.75;;
39948;SDS011;29070;48.102;-1.652;2023-03-23T00:07:14;15.65;;;2.67;;
39948;SDS011;29070;48.102;-1.652;2023-03-23T00:12:21;22.55;;;2.67;;
39948;SDS011;29070;48.102;-1.652;2023-03-23T00:17:32;15.55;;;2.55;;
39948;SDS011;29070;48.102;-1.652;2023-03-23T00:22:33;13.15;;;2.15;;
39948;SDS011;29070;48.102;-1.652;2023-03-23T00:27:37;11.65;;;2.13;;
39948;SDS011;29070;48.102;-1.652;2023-03-23T00:32:38;13.00;;;2.10;;
39948;SDS011;29070;48.102;-1.652;2023-03-23T00:37:38;11.55;;;1.85;;
39948;SDS011;29070;48.102;-1.652;2023-03-23T00:42:39;12.30;;;1.90;;
39948;SDS011;29070;48.102;-1.652;2023-03-23T00:47:39;14.73;;;2.20;;
39948;SDS011;29070;48.102;-1.652;2023-03-23T00:52:41;11.35;;;2.03;;
39948;SDS011;29070;48.102;-1.652;2023-03-23T00:57:41;9.57;;;1.70;;
39948;SDS011;29070;48.102;-1.652;2023-03-23T01:02:42;9.47;;;2.23;;
39948;SDS011;29070;48.102;-1.652;2023-03-23T01:07:44;10.38;;;1.83;;
39948;SDS011;29070;48.102;-1.652;2023-03-23T01:12:46;12.93;;;1.85;;
39948;SDS011;29070;48.102;-1.652;2023-03-23T01:17:46;14.77;;;1.95;;
39948;SDS011;29070;48.102;-1.652;2023-03-23T01:22:47;10.55;;;2.00;;
39948;SDS011;29070;48.102;-1.652;2023-03-23T01:27:47;12.30;;;1.87;;
39948;SDS011;29070;48.102;-1.652;2023-03-23T01:32:47;7.27;;;2.37;;
39948;SDS011;29070;48.102;-1.652;2023-03-23T01:37:48;9.37;;;1.50;;
39948;SDS011;29070;48.102;-1.652;2023-03-23T01:42:48;8.93;;;1.70;;
39948;SDS011;29070;48.102;-1.652;2023-03-23T01:47:50;9.30;;;1.80;;
39948;SDS011;29070;48.102;-1.652;2023-03-23T01:52:56;10.65;;;1.98;;
39948;SDS011;29070;48.102;-1.652;2023-03-23T01:57:59;22.20;;;2.88;;
39948;SDS011;29070;48.102;-1.652;2023-03-23T02:03:00;9.68;;;1.77;;
39948;SDS011;29070;48.102;-1.652;2023-03-23T02:08:01;14.50;;;2.03;;
39948;SDS011;29070;48.102;-1.652;2023-03-23T02:13:06;14.05;;;2.47;;
39948;SDS011;29070;48.102;-1.652;2023-03-23T02:18:12;14.85;;;1.98;;
39948;SDS011;29070;48.102;-1.652;2023-03-23T02:44:13;11.95;;;2.70;;
39948;SDS011;29070;48.102;-1.652;2023-03-23T02:49:15;18.27;;;2.67;;
39948;SDS011;29070;48.102;-1.652;2023-03-23T02:54:17;12.40;;;2.20;;
39948;SDS011;29070;48.102;-1.652;2023-03-23T02:59:20;15.20;;;3.05;;
39948;SDS011;29070;48.102;-1.652;2023-03-23T03:04:21;14.85;;;2.08;;
39948;SDS011;29070;48.102;-1.652;2023-03-23T03:14:45;14.45;;;2.53;;
39948;SDS011;29070;48.102;-1.652;2023-03-23T03:20:01;19.35;;;2.40;;
39948;SDS011;29070;48.102;-1.652;2023-03-23T03:25:14;19.88;;;2.70;;
39948;SDS011;29070;48.102;-1.652;2023-03-23T03:30:17;12.48;;;2.20;;
39948;SDS011;29070;48.102;-1.652;2023-03-23T03:35:22;7.97;;;1.88;;
39948;SDS011;29070;48.102;-1.652;2023-03-23T03:40:23;12.90;;;2.08;;
39948;SDS011;29070;48.102;-1.652;2023-03-23T03:45:24;12.25;;;1.90;;
39948;SDS011;29070;48.102;-1.652;2023-03-23T03:50:24;17.73;;;2.33;;
39948;SDS011;29070;48.102;-1.652;2023-03-23T03:55:25;16.38;;;1.80;;
39948;SDS011;29070;48.102;-1.652;2023-03-23T04:00:27;8.05;;;2.42;;
39948;SDS011;29070;48.102;-1.652;2023-03-23T04:05:28;11.90;;;2.22;;
39948;SDS011;29070;48.102;-1.652;2023-03-23T04:10:33;16.03;;;2.50;;
39948;SDS011;29070;48.102;-1.652;2023-03-23T04:15:33;10.82;;;2.30;;
39948;SDS011;29070;48.102;-1.652;2023-03-23T04:20:34;15.07;;;2.33;;
39948;SDS011;29070;48.102;-1.652;2023-03-23T04:25:34;15.38;;;2.42;;
39948;SDS011;29070;48.102;-1.652;2023-03-23T04:30:35;18.92;;;2.47;;
39948;SDS011;29070;48.102;-1.652;2023-03-23T04:35:36;11.27;;;2.58;;
39948;SDS011;29070;48.102;-1.652;2023-03-23T04:40:40;18.17;;;2.88;;
39948;SDS011;29070;48.102;-1.652;2023-03-23T04:50:45;15.10;;;2.45;;
39948;SDS011;29070;48.102;-1.652;2023-03-23T04:55:48;19.55;;;2.25;;
39948;SDS011;29070;48.102;-1.652;2023-03-23T05:00:49;14.52;;;2.35;;
39948;SDS011;29070;48.102;-1.652;2023-03-23T05:05:49;13.68;;;2.65;;
39948;SDS011;29070;48.102;-1.652;2023-03-23T05:10:53;15.77;;;2.75;;
39948;SDS011;29070;48.102;-1.652;2023-03-23T05:15:54;12.65;;;2.35;;
39948;SDS011;29070;48.102;-1.652;2023-03-23T05:20:55;12.95;;;2.05;;
39948;SDS011;29070;48.102;-1.652;2023-03-23T05:25:59;9.30;;;2.03;;
39948;SDS011;29070;48.102;-1.652;2023-03-23T05:31:02;8.00;;;1.48;;
39948;SDS011;29070;48.102;-1.652;2023-03-23T05:36:03;17.75;;;3.20;;
39948;SDS011;29070;48.102;-1.652;2023-03-23T05:41:04;11.32;;;2.08;;
39948;SDS011;29070;48.102;-1.652;2023-03-23T05:46:04;18.07;;;3.13;;
39948;SDS011;29070;48.102;-1.652;2023-03-23T05:51:04;11.13;;;2.30;;
39948;SDS011;29070;48.102;-1.652;2023-03-23T05:56:05;17.87;;;2.70;;
39948;SDS011;29070;48.102;-1.652;2023-03-23T06:01:07;15.32;;;3.10;;
39948;SDS011;29070;48.102;-1.652;2023-03-23T06:06:10;15.13;;;2.25;;
39948;SDS011;29070;48.102;-1.652;2023-03-23T06:11:11;16.85;;;3.30;;
39948;SDS011;29070;48.102;-1.652;2023-03-23T06:16:12;15.13;;;3.72;;
39948;SDS011;29070;48.102;-1.652;2023-03-23T06:21:12;21.20;;;2.60;;
39948;SDS011;29070;48.102;-1.652;2023-03-23T06:26:13;23.52;;;3.30;;
39948;SDS011;29070;48.102;-1.652;2023-03-23T06:31:16;17.08;;;3.47;;
39948;SDS011;29070;48.102;-1.652;2023-03-23T06:36:19;21.58;;;4.93;;
39948;SDS011;29070;48.102;-1.652;2023-03-23T06:41:20;17.63;;;3.00;;
39948;SDS011;29070;48.102;-1.652;2023-03-23T06:46:21;25.25;;;3.55;;
39948;SDS011;29070;48.102;-1.652;2023-03-23T06:51:21;16.43;;;3.03;;
39948;SDS011;29070;48.102;-1.652;2023-03-23T06:56:22;14.37;;;3.60;;
39948;SDS011;29070;48.102;-1.652;2023-03-23T07:01:22;20.48;;;3.92;;
39948;SDS011;29070;48.102;-1.652;2023-03-23T07:06:23;22.40;;;3.40;;
39948;SDS011;29070;48.102;-1.652;2023-03-23T07:11:25;22.42;;;3.45;;
39948;SDS011;29070;48.102;-1.652;2023-03-23T07:16:26;21.27;;;3.17;;
39948;SDS011;29070;48.102;-1.652;2023-03-23T07:21:26;24.97;;;3.10;;
39948;SDS011;29070;48.102;-1.652;2023-03-23T07:26:27;24.23;;;4.33;;
39948;SDS011;29070;48.102;-1.652;2023-03-23T07:31:27;15.60;;;3.17;;
39948;SDS011;29070;48.102;-1.652;2023-03-23T07:36:28;21.87;;;3.10;;
39948;SDS011;29070;48.102;-1.652;2023-03-23T07:41:28;20.77;;;2.88;;
39948;SDS011;29070;48.102;-1.652;2023-03-23T07:46:29;33.22;;;4.60;;
39948;SDS011;29070;48.102;-1.652;2023-03-23T07:51:30;20.15;;;3.20;;
39948;SDS011;29070;48.102;-1.652;2023-03-23T07:56:30;16.53;;;3.57;;
39948;SDS011;29070;48.102;-1.652;2023-03-23T08:01:31;20.13;;;3.17;;
39948;SDS011;29070;48.102;-1.652;2023-03-23T08:06:32;27.25;;;3.90;;
39948;SDS011;29070;48.102;-1.652;2023-03-23T08:11:34;22.83;;;3.75;;
39948;SDS011;29070;48.102;-1.652;2023-03-23T08:16:35;26.27;;;3.75;;
39948;SDS011;29070;48.102;-1.652;2023-03-23T08:21:35;20.40;;;3.83;;
39948;SDS011;29070;48.102;-1.652;2023-03-23T08:26:36;26.45;;;3.22;;
39948;SDS011;29070;48.102;-1.652;2023-03-23T08:31:38;24.48;;;3.97;;
39948;SDS011;29070;48.102;-1.652;2023-03-23T08:36:39;23.35;;;4.32;;
39948;SDS011;29070;48.102;-1.652;2023-03-23T08:41:40;23.52;;;3.80;;
39948;SDS011;29070;48.102;-1.652;2023-03-23T08:46:40;20.15;;;4.40;;
39948;SDS011;29070;48.102;-1.652;2023-03-23T08:51:41;19.88;;;3.60;;
39948;SDS011;29070;48.102;-1.652;2023-03-23T08:56:42;24.45;;;4.05;;
39948;SDS011;29070;48.102;-1.652;2023-03-23T09:01:42;19.45;;;3.42;;
39948;SDS011;29070;48.102;-1.652;2023-03-23T09:06:42;18.10;;;3.13;;
39948;SDS011;29070;48.102;-1.652;2023-03-23T09:11:44;22.20;;;3.65;;
39948;SDS011;29070;48.102;-1.652;2023-03-23T09:16:45;13.95;;;3.17;;
39948;SDS011;29070;48.102;-1.652;2023-03-23T09:21:45;22.03;;;3.10;;
39948;SDS011;29070;48.102;-1.652;2023-03-23T09:26:45;13.63;;;2.57;;
39948;SDS011;29070;48.102;-1.652;2023-03-23T09:31:46;11.48;;;2.78;;
39948;SDS011;29070;48.102;-1.652;2023-03-23T09:36:47;16.52;;;3.15;;
39948;SDS011;29070;48.102;-1.652;2023-03-23T09:47:38;18.00;;;3.03;;
39948;SDS011;29070;48.102;-1.652;2023-03-23T09:52:49;10.43;;;2.15;;
39948;SDS011;29070;48.102;-1.652;2023-03-23T10:03:17;17.35;;;2.50;;
39948;SDS011;29070;48.102;-1.652;2023-03-23T10:08:22;12.53;;;2.93;;
39948;SDS011;29070;48.102;-1.652;2023-03-23T10:18:35;15.68;;;2.30;;
39948;SDS011;29070;48.102;-1.652;2023-03-23T10:23:43;11.90;;;2.17;;
39948;SDS011;29070;48.102;-1.652;2023-03-23T10:29:01;16.98;;;2.53;;
39948;SDS011;29070;48.102;-1.652;2023-03-23T10:39:51;11.05;;;2.22;;
39948;SDS011;29070;48.102;-1.652;2023-03-23T10:44:55;11.95;;;1.70;;
39948;SDS011;29070;48.102;-1.652;2023-03-23T10:49:59;15.05;;;2.90;;
39948;SDS011;29070;48.102;-1.652;2023-03-23T10:55:04;13.15;;;2.65;;
39948;SDS011;29070;48.102;-1.652;2023-03-23T11:10:28;16.60;;;3.05;;
39948;SDS011;29070;48.102;-1.652;2023-03-23T11:15:37;16.73;;;2.63;;
39948;SDS011;29070;48.102;-1.652;2023-03-23T11:20:40;12.95;;;2.80;;
39948;SDS011;29070;48.102;-1.652;2023-03-23T11:31:02;13.95;;;3.20;;
39948;SDS011;29070;48.102;-1.652;2023-03-23T11:36:06;16.20;;;3.03;;
39948;SDS011;29070;48.102;-1.652;2023-03-23T11:41:11;18.00;;;2.97;;
39948;SDS011;29070;48.102;-1.652;2023-03-23T11:46:16;15.23;;;3.80;;
39948;SDS011;29070;48.102;-1.652;2023-03-23T11:52:05;20.83;;;3.28;;
39948;SDS011;29070;48.102;-1.652;2023-03-23T11:56:49;13.45;;;2.95;;
39948;SDS011;29070;48.102;-1.652;2023-03-23T12:12:32;17.88;;;3.17;;
39948;SDS011;29070;48.102;-1.652;2023-03-23T12:28:27;17.60;;;3.63;;
39948;SDS011;29070;48.102;-1.652;2023-03-23T12:44:10;14.23;;;2.92;;
39948;SDS011;29070;48.102;-1.652;2023-03-23T12:54:27;22.88;;;4.45;;
39948;SDS011;29070;48.102;-1.652;2023-03-23T12:59:53;26.95;;;3.67;;
39948;SDS011;29070;48.102;-1.652;2023-03-23T13:05:02;19.20;;;4.33;;
39948;SDS011;29070;48.102;-1.652;2023-03-23T13:10:23;17.00;;;3.53;;
39948;SDS011;29070;48.102;-1.652;2023-03-23T13:25:49;14.18;;;2.63;;
39948;SDS011;29070;48.102;-1.652;2023-03-23T13:30:54;13.75;;;2.70;;
39948;SDS011;29070;48.102;-1.652;2023-03-23T13:36:03;15.80;;;2.63;;
39948;SDS011;29070;48.102;-1.652;2023-03-23T13:41:08;17.80;;;2.95;;
39948;SDS011;29070;48.102;-1.652;2023-03-23T13:46:22;20.00;;;4.65;;
39948;SDS011;29070;48.102;-1.652;2023-03-23T13:56:50;11.45;;;2.67;;
39948;SDS011;29070;48.102;-1.652;2023-03-23T14:01:55;13.38;;;2.72;;
39948;SDS011;29070;48.102;-1.652;2023-03-23T14:07:16;13.77;;;3.28;;
39948;SDS011;29070;48.102;-1.652;2023-03-23T14:12:23;17.25;;;2.75;;
39948;SDS011;29070;48.102;-1.652;2023-03-23T14:17:39;11.00;;;2.63;;
39948;SDS011;29070;48.102;-1.652;2023-03-23T14:22:45;9.90;;;2.65;;
39948;SDS011;29070;48.102;-1.652;2023-03-23T14:27:45;13.70;;;2.70;;
39948;SDS011;29070;48.102;-1.652;2023-03-23T14:32:45;10.43;;;1.90;;
39948;SDS011;29070;48.102;-1.652;2023-03-23T14:37:47;11.88;;;2.03;;
39948;SDS011;29070;48.102;-1.652;2023-03-23T14:42:49;9.95;;;2.28;;
39948;SDS011;29070;48.102;-1.652;2023-03-23T14:47:52;11.32;;;1.70;;
39948;SDS011;29070;48.102;-1.652;2023-03-23T14:52:58;9.20;;;2.15;;
39948;SDS011;29070;48.102;-1.652;2023-03-23T14:58:08;11.30;;;2.25;;
39948;SDS011;29070;48.102;-1.652;2023-03-23T15:03:11;9.82;;;2.15;;
39948;SDS011;29070;48.102;-1.652;2023-03-23T15:08:15;10.18;;;2.00;;
39948;SDS011;29070;48.102;-1.652;2023-03-23T15:13:20;10.88;;;2.20;;
39948;SDS011;29070;48.102;-1.652;2023-03-23T15:18:31;12.95;;;1.83;;
39948;SDS011;29070;48.102;-1.652;2023-03-23T15:23:34;7.90;;;1.60;;
39948;SDS011;29070;48.102;-1.652;2023-03-23T15:28:41;7.65;;;1.40;;
39948;SDS011;29070;48.102;-1.652;2023-03-23T15:33:42;5.17;;;1.90;;
39948;SDS011;29070;48.102;-1.652;2023-03-23T15:38:43;4.33;;;1.23;;
39948;SDS011;29070;48.102;-1.652;2023-03-23T15:43:52;7.35;;;1.10;;
39948;SDS011;29070;48.102;-1.652;2023-03-23T15:54:00;5.82;;;1.13;;
39948;SDS011;29070;48.102;-1.652;2023-03-23T15:59:01;7.53;;;1.38;;
39948;SDS011;29070;48.102;-1.652;2023-03-23T16:09:15;3.08;;;1.30;;
39948;SDS011;29070;48.102;-1.652;2023-03-23T16:14:17;3.92;;;1.00;;
39948;SDS011;29070;48.102;-1.652;2023-03-23T16:19:17;4.67;;;0.70;;
39948;SDS011;29070;48.102;-1.652;2023-03-23T16:24:19;4.93;;;1.05;;
39948;SDS011;29070;48.102;-1.652;2023-03-23T16:29:19;2.77;;;1.13;;
39948;SDS011;29070;48.102;-1.652;2023-03-23T16:34:20;2.45;;;0.90;;
39948;SDS011;29070;48.102;-1.652;2023-03-23T16:39:20;5.07;;;0.90;;
39948;SDS011;29070;48.102;-1.652;2023-03-23T16:44:22;4.65;;;1.15;;
39948;SDS011;29070;48.102;-1.652;2023-03-23T16:49:22;2.13;;;0.90;;
39948;SDS011;29070;48.102;-1.652;2023-03-23T16:54:22;7.80;;;1.63;;
39948;SDS011;29070;48.102;-1.652;2023-03-23T16:59:23;3.63;;;1.00;;
39948;SDS011;29070;48.102;-1.652;2023-03-23T17:04:27;4.95;;;1.13;;
39948;SDS011;29070;48.102;-1.652;2023-03-23T17:09:27;2.47;;;1.07;;
39948;SDS011;29070;48.102;-1.652;2023-03-23T17:14:28;2.88;;;1.10;;
39948;SDS011;29070;48.102;-1.652;2023-03-23T17:19:28;3.10;;;1.50;;
39948;SDS011;29070;48.102;-1.652;2023-03-23T17:24:28;2.90;;;1.37;;
39948;SDS011;29070;48.102;-1.652;2023-03-23T17:29:29;6.22;;;1.40;;
39948;SDS011;29070;48.102;-1.652;2023-03-23T17:34:29;3.50;;;1.80;;
39948;SDS011;29070;48.102;-1.652;2023-03-23T17:39:30;3.50;;;1.55;;
39948;SDS011;29070;48.102;-1.652;2023-03-23T17:44:30;3.97;;;1.20;;
39948;SDS011;29070;48.102;-1.652;2023-03-23T17:49:31;3.05;;;1.33;;
39948;SDS011;29070;48.102;-1.652;2023-03-23T17:54:32;6.30;;;1.85;;
39948;SDS011;29070;48.102;-1.652;2023-03-23T17:59:32;2.87;;;1.40;;
39948;SDS011;29070;48.102;-1.652;2023-03-23T18:04:32;1.63;;;1.02;;
39948;SDS011;29070;48.102;-1.652;2023-03-23T18:09:33;4.55;;;1.30;;
39948;SDS011;29070;48.102;-1.652;2023-03-23T18:14:33;4.47;;;1.60;;
39948;SDS011;29070;48.102;-1.652;2023-03-23T18:19:34;2.50;;;1.30;;
39948;SDS011;29070;48.102;-1.652;2023-03-23T18:24:35;5.00;;;2.00;;
39948;SDS011;29070;48.102;-1.652;2023-03-23T18:29:36;2.70;;;1.67;;
39948;SDS011;29070;48.102;-1.652;2023-03-23T18:34:38;4.27;;;1.73;;
39948;SDS011;29070;48.102;-1.652;2023-03-23T18:39:40;6.78;;;2.38;;
39948;SDS011;29070;48.102;-1.652;2023-03-23T18:44:40;4.33;;;1.77;;
39948;SDS011;29070;48.102;-1.652;2023-03-23T18:49:41;4.07;;;1.67;;
39948;SDS011;29070;48.102;-1.652;2023-03-23T18:54:41;5.60;;;2.07;;
39948;SDS011;29070;48.102;-1.652;2023-03-23T18:59:44;3.72;;;1.42;;
39948;SDS011;29070;48.102;-1.652;2023-03-23T19:04:45;6.45;;;2.25;;
39948;SDS011;29070;48.102;-1.652;2023-03-23T19:09:46;4.05;;;1.60;;
39948;SDS011;29070;48.102;-1.652;2023-03-23T19:14:47;4.87;;;1.30;;
39948;SDS011;29070;48.102;-1.652;2023-03-23T19:19:47;7.93;;;1.85;;
39948;SDS011;29070;48.102;-1.652;2023-03-23T19:24:48;4.68;;;1.45;;
39948;SDS011;29070;48.102;-1.652;2023-03-23T19:29:48;3.90;;;1.20;;
39948;SDS011;29070;48.102;-1.652;2023-03-23T19:34:49;3.77;;;1.50;;
39948;SDS011;29070;48.102;-1.652;2023-03-23T19:39:49;2.67;;;1.23;;
39948;SDS011;29070;48.102;-1.652;2023-03-23T19:44:50;3.88;;;1.30;;
39948;SDS011;29070;48.102;-1.652;2023-03-23T19:49:50;5.17;;;2.00;;
39948;SDS011;29070;48.102;-1.652;2023-03-23T19:54:51;2.77;;;1.60;;
39948;SDS011;29070;48.102;-1.652;2023-03-23T19:59:51;3.50;;;1.20;;
39948;SDS011;29070;48.102;-1.652;2023-03-23T20:04:51;2.63;;;1.40;;
39948;SDS011;29070;48.102;-1.652;2023-03-23T20:09:52;5.25;;;1.50;;
39948;SDS011;29070;48.102;-1.652;2023-03-23T20:14:52;2.90;;;1.60;;
39948;SDS011;29070;48.102;-1.652;2023-03-23T20:19:53;7.43;;;1.80;;
39948;SDS011;29070;48.102;-1.652;2023-03-23T20:24:53;2.87;;;1.37;;
39948;SDS011;29070;48.102;-1.652;2023-03-23T20:29:53;6.27;;;1.30;;
39948;SDS011;29070;48.102;-1.652;2023-03-23T20:34:54;5.65;;;1.83;;
39948;SDS011;29070;48.102;-1.652;2023-03-23T20:39:56;4.82;;;1.40;;
39948;SDS011;29070;48.102;-1.652;2023-03-23T20:44:56;3.63;;;1.60;;
39948;SDS011;29070;48.102;-1.652;2023-03-23T20:49:57;5.43;;;1.00;;
39948;SDS011;29070;48.102;-1.652;2023-03-23T20:54:59;3.22;;;1.40;;
39948;SDS011;29070;48.102;-1.652;2023-03-23T20:59:59;3.00;;;1.20;;
39948;SDS011;29070;48.102;-1.652;2023-03-23T21:05:01;8.50;;;1.02;;
39948;SDS011;29070;48.102;-1.652;2023-03-23T21:10:03;4.88;;;1.17;;
39948;SDS011;29070;48.102;-1.652;2023-03-23T21:15:03;4.32;;;1.52;;
39948;SDS011;29070;48.102;-1.652;2023-03-23T21:20:05;4.68;;;0.93;;
39948;SDS011;29070;48.102;-1.652;2023-03-23T21:25:06;4.40;;;0.98;;
39948;SDS011;29070;48.102;-1.652;2023-03-23T21:30:09;3.60;;;0.95;;
39948;SDS011;29070;48.102;-1.652;2023-03-23T21:35:09;4.43;;;1.48;;
39948;SDS011;29070;48.102;-1.652;2023-03-23T21:40:11;2.38;;;0.73;;
39948;SDS011;29070;48.102;-1.652;2023-03-23T21:45:13;6.82;;;0.93;;
39948;SDS011;29070;48.102;-1.652;2023-03-23T21:50:17;3.80;;;0.82;;
39948;SDS011;29070;48.102;-1.652;2023-03-23T21:55:20;1.67;;;0.73;;
39948;SDS011;29070;48.102;-1.652;2023-03-23T22:00:22;6.57;;;1.00;;
39948;SDS011;29070;48.102;-1.652;2023-03-23T22:05:22;5.15;;;1.00;;
39948;SDS011;29070;48.102;-1.652;2023-03-23T22:10:23;4.60;;;1.70;;
39948;SDS011;29070;48.102;-1.652;2023-03-23T22:15:24;5.80;;;1.17;;
39948;SDS011;29070;48.102;-1.652;2023-03-23T22:20:26;7.85;;;1.50;;
39948;SDS011;29070;48.102;-1.652;2023-03-23T22:25:28;4.57;;;0.88;;
39948;SDS011;29070;48.102;-1.652;2023-03-23T22:30:30;6.90;;;1.07;;
39948;SDS011;29070;48.102;-1.652;2023-03-23T22:35:32;6.25;;;1.10;;
39948;SDS011;29070;48.102;-1.652;2023-03-23T22:40:32;22.48;;;1.63;;
39948;SDS011;29070;48.102;-1.652;2023-03-23T22:45:33;4.90;;;1.13;;
39948;SDS011;29070;48.102;-1.652;2023-03-23T22:50:34;12.20;;;2.70;;
39948;SDS011;29070;48.102;-1.652;2023-03-23T22:55:34;7.05;;;1.23;;
39948;SDS011;29070;48.102;-1.652;2023-03-23T23:00:35;6.15;;;1.38;;
39948;SDS011;29070;48.102;-1.652;2023-03-23T23:05:45;5.32;;;1.02;;
39948;SDS011;29070;48.102;-1.652;2023-03-23T23:10:48;5.63;;;1.20;;
39948;SDS011;29070;48.102;-1.652;2023-03-23T23:15:51;10.52;;;1.75;;
39948;SDS011;29070;48.102;-1.652;2023-03-23T23:20:54;8.73;;;2.00;;
39948;SDS011;29070;48.102;-1.652;2023-03-23T23:25:56;12.48;;;1.60;;
39948;SDS011;29070;48.102;-1.652;2023-03-23T23:30:56;8.18;;;1.60;;
39948;SDS011;29070;48.102;-1.652;2023-03-23T23:35:57;10.50;;;1.30;;
39948;SDS011;29070;48.102;-1.652;2023-03-23T23:40:57;6.90;;;1.80;;
39948;SDS011;29070;48.102;-1.652;2023-03-23T23:45:57;13.23;;;1.63;;
39948;SDS011;29070;48.102;-1.652;2023-03-23T23:50:58;7.40;;;1.60;;
39948;SDS011;29070;48.102;-1.652;2023-03-23T23:56:02;7.45;;;1.73;;
